sensor_id;sensor_type;location;lat;lon;timestamp;temperature;humidity
55026;DHT22;40925;45.666;18.994;2023-10-09T00:02:07;333.30;2329.60
55026;DHT22;40925;45.666;18.994;2023-10-09T00:04:33;333.30;2329.60
55026;DHT22;40925;45.666;18.994;2023-10-09T00:07:03;333.30;2329.60
55026;DHT22;40925;45.666;18.994;2023-10-09T00:10:06;333.20;2329.60
55026;DHT22;40925;45.666;18.994;2023-10-09T00:12:38;333.10;2329.60
55026;DHT22;40925;45.666;18.994;2023-10-09T00:15:04;333.20;2329.60
55026;DHT22;40925;45.666;18.994;2023-10-09T00:17:34;333.20;2329.60
55026;DHT22;40925;45.666;18.994;2023-10-09T00:19:59;333.10;2329.60
55026;DHT22;40925;45.666;18.994;2023-10-09T00:22:26;333.20;2329.60
55026;DHT22;40925;45.666;18.994;2023-10-09T00:24:54;333.10;2329.60
55026;DHT22;40925;45.666;18.994;2023-10-09T00:27:38;333.00;2329.60
55026;DHT22;40925;45.666;18.994;2023-10-09T00:30:10;333.20;2329.60
55026;DHT22;40925;45.666;18.994;2023-10-09T00:32:37;333.30;2329.60
55026;DHT22;40925;45.666;18.994;2023-10-09T00:35:09;333.20;2329.60
55026;DHT22;40925;45.666;18.994;2023-10-09T00:37:54;333.30;2329.60
55026;DHT22;40925;45.666;18.994;2023-10-09T00:40:33;333.20;2329.60
55026;DHT22;40925;45.666;18.994;2023-10-09T00:43:02;333.20;2329.60
55026;DHT22;40925;45.666;18.994;2023-10-09T00:45:32;333.20;2329.60
55026;DHT22;40925;45.666;18.994;2023-10-09T00:47:58;333.20;2329.60
55026;DHT22;40925;45.666;18.994;2023-10-09T00:50:28;333.20;2329.60
55026;DHT22;40925;45.666;18.994;2023-10-09T00:53:01;333.10;2329.60
55026;DHT22;40925;45.666;18.994;2023-10-09T00:55:37;333.10;2329.60
55026;DHT22;40925;45.666;18.994;2023-10-09T00:58:16;333.10;2329.60
55026;DHT22;40925;45.666;18.994;2023-10-09T01:00:49;333.10;2329.60
55026;DHT22;40925;45.666;18.994;2023-10-09T01:03:19;333.10;2329.60
55026;DHT22;40925;45.666;18.994;2023-10-09T01:05:50;358.40;2329.60
55026;DHT22;40925;45.666;18.994;2023-10-09T01:08:41;333.10;2329.60
55026;DHT22;40925;45.666;18.994;2023-10-09T01:11:13;333.00;2329.60
55026;DHT22;40925;45.666;18.994;2023-10-09T01:13:49;333.00;2329.60
55026;DHT22;40925;45.666;18.994;2023-10-09T01:16:23;333.00;2329.60
55026;DHT22;40925;45.666;18.994;2023-10-09T01:18:53;333.00;2329.60
55026;DHT22;40925;45.666;18.994;2023-10-09T01:21:23;333.00;2329.60
55026;DHT22;40925;45.666;18.994;2023-10-09T01:23:53;308.10;2304.00
55026;DHT22;40925;45.666;18.994;2023-10-09T01:26:32;332.90;2329.60
55026;DHT22;40925;45.666;18.994;2023-10-09T01:29:20;332.90;2329.60
55026;DHT22;40925;45.666;18.994;2023-10-09T01:31:55;332.80;2329.60
55026;DHT22;40925;45.666;18.994;2023-10-09T01:34:22;332.80;2329.60
55026;DHT22;40925;45.666;18.994;2023-10-09T01:37:04;308.10;2304.00
55026;DHT22;40925;45.666;18.994;2023-10-09T01:39:51;308.00;2304.00
55026;DHT22;40925;45.666;18.994;2023-10-09T01:42:18;308.10;2304.00
55026;DHT22;40925;45.666;18.994;2023-10-09T01:45:02;308.10;2304.00
55026;DHT22;40925;45.666;18.994;2023-10-09T01:47:36;308.00;2304.00
55026;DHT22;40925;45.666;18.994;2023-10-09T01:50:07;308.00;2304.00
55026;DHT22;40925;45.666;18.994;2023-10-09T01:52:47;307.90;2304.00
55026;DHT22;40925;45.666;18.994;2023-10-09T01:55:13;307.90;2304.00
55026;DHT22;40925;45.666;18.994;2023-10-09T01:57:55;307.90;2304.00
55026;DHT22;40925;45.666;18.994;2023-10-09T02:00:23;307.90;2304.00
55026;DHT22;40925;45.666;18.994;2023-10-09T02:02:53;307.90;2304.00
55026;DHT22;40925;45.666;18.994;2023-10-09T02:05:19;308.00;2304.00
55026;DHT22;40925;45.666;18.994;2023-10-09T02:07:59;308.00;2304.00
55026;DHT22;40925;45.666;18.994;2023-10-09T02:10:24;308.00;2304.00
55026;DHT22;40925;45.666;18.994;2023-10-09T02:12:51;308.00;2304.00
55026;DHT22;40925;45.666;18.994;2023-10-09T02:15:36;308.00;2304.00
55026;DHT22;40925;45.666;18.994;2023-10-09T02:18:12;308.00;2304.00
55026;DHT22;40925;45.666;18.994;2023-10-09T02:20:49;308.00;2304.00
55026;DHT22;40925;45.666;18.994;2023-10-09T02:23:27;308.00;2304.00
55026;DHT22;40925;45.666;18.994;2023-10-09T02:26:09;308.00;2304.00
55026;DHT22;40925;45.666;18.994;2023-10-09T02:28:36;307.90;2304.00
55026;DHT22;40925;45.666;18.994;2023-10-09T02:31:12;307.90;2304.00
55026;DHT22;40925;45.666;18.994;2023-10-09T02:33:38;307.90;2304.00
55026;DHT22;40925;45.666;18.994;2023-10-09T02:36:07;307.90;2304.00
55026;DHT22;40925;45.666;18.994;2023-10-09T02:39:03;307.80;2304.00
55026;DHT22;40925;45.666;18.994;2023-10-09T02:41:37;307.80;2304.00
55026;DHT22;40925;45.666;18.994;2023-10-09T02:44:15;307.70;2304.00
55026;DHT22;40925;45.666;18.994;2023-10-09T02:46:43;307.70;2304.00
55026;DHT22;40925;45.666;18.994;2023-10-09T02:49:10;307.70;2304.00
55026;DHT22;40925;45.666;18.994;2023-10-09T02:51:41;307.70;2304.00
55026;DHT22;40925;45.666;18.994;2023-10-09T02:54:13;307.70;2304.00
55026;DHT22;40925;45.666;18.994;2023-10-09T02:56:53;307.70;2304.00
55026;DHT22;40925;45.666;18.994;2023-10-09T02:59:30;307.70;2304.00
55026;DHT22;40925;45.666;18.994;2023-10-09T03:01:56;307.60;2304.00
55026;DHT22;40925;45.666;18.994;2023-10-09T03:04:28;307.50;2304.00
55026;DHT22;40925;45.666;18.994;2023-10-09T03:06:58;307.50;2304.00
55026;DHT22;40925;45.666;18.994;2023-10-09T03:09:24;307.50;2304.00
55026;DHT22;40925;45.666;18.994;2023-10-09T03:11:55;307.50;2304.00
55026;DHT22;40925;45.666;18.994;2023-10-09T03:14:34;307.50;2304.00
55026;DHT22;40925;45.666;18.994;2023-10-09T03:17:04;307.50;2304.00
55026;DHT22;40925;45.666;18.994;2023-10-09T03:19:32;307.40;2304.00
55026;DHT22;40925;45.666;18.994;2023-10-09T03:22:05;307.40;2304.00
55026;DHT22;40925;45.666;18.994;2023-10-09T03:24:39;307.40;2304.00
55026;DHT22;40925;45.666;18.994;2023-10-09T03:27:10;307.30;2304.00
55026;DHT22;40925;45.666;18.994;2023-10-09T03:29:36;307.30;2304.00
55026;DHT22;40925;45.666;18.994;2023-10-09T03:32:03;307.30;2304.00
55026;DHT22;40925;45.666;18.994;2023-10-09T03:34:29;307.20;2304.00
55026;DHT22;40925;45.666;18.994;2023-10-09T03:36:56;307.20;2304.00
55026;DHT22;40925;45.666;18.994;2023-10-09T03:39:32;307.20;2304.00
55026;DHT22;40925;45.666;18.994;2023-10-09T03:42:06;307.20;2304.00
55026;DHT22;40925;45.666;18.994;2023-10-09T03:44:41;307.30;2304.00
55026;DHT22;40925;45.666;18.994;2023-10-09T03:47:09;282.50;2278.40
55026;DHT22;40925;45.666;18.994;2023-10-09T03:49:36;282.40;2278.40
55026;DHT22;40925;45.666;18.994;2023-10-09T03:52:05;282.40;2278.40
55026;DHT22;40925;45.666;18.994;2023-10-09T03:54:34;282.40;2278.40
55026;DHT22;40925;45.666;18.994;2023-10-09T03:57:01;282.40;2278.40
55026;DHT22;40925;45.666;18.994;2023-10-09T03:59:28;282.40;2278.40
55026;DHT22;40925;45.666;18.994;2023-10-09T04:01:56;282.40;2278.40
55026;DHT22;40925;45.666;18.994;2023-10-09T04:04:24;282.30;2278.40
55026;DHT22;40925;45.666;18.994;2023-10-09T04:06:50;282.30;2278.40
55026;DHT22;40925;45.666;18.994;2023-10-09T04:09:18;282.20;2278.40
55026;DHT22;40925;45.666;18.994;2023-10-09T04:11:44;282.10;2278.40
55026;DHT22;40925;45.666;18.994;2023-10-09T04:14:15;282.10;2278.40
55026;DHT22;40925;45.666;18.994;2023-10-09T04:16:57;282.10;2278.40
55026;DHT22;40925;45.666;18.994;2023-10-09T04:19:33;282.10;2278.40
55026;DHT22;40925;45.666;18.994;2023-10-09T04:22:14;282.10;2278.40
55026;DHT22;40925;45.666;18.994;2023-10-09T04:25:11;282.10;2278.40
55026;DHT22;40925;45.666;18.994;2023-10-09T04:27:43;282.00;2278.40
55026;DHT22;40925;45.666;18.994;2023-10-09T04:30:14;282.00;2278.40
55026;DHT22;40925;45.666;18.994;2023-10-09T04:32:41;282.00;2278.40
55026;DHT22;40925;45.666;18.994;2023-10-09T04:35:11;282.00;2278.40
55026;DHT22;40925;45.666;18.994;2023-10-09T04:37:43;281.80;2278.40
55026;DHT22;40925;45.666;18.994;2023-10-09T04:40:11;281.70;2278.40
55026;DHT22;40925;45.666;18.994;2023-10-09T04:42:38;281.60;2278.40
55026;DHT22;40925;45.666;18.994;2023-10-09T04:45:22;281.60;2278.40
55026;DHT22;40925;45.666;18.994;2023-10-09T04:48:08;281.70;2278.40
55026;DHT22;40925;45.666;18.994;2023-10-09T04:50:35;281.70;2278.40
55026;DHT22;40925;45.666;18.994;2023-10-09T04:53:02;281.60;2278.40
55026;DHT22;40925;45.666;18.994;2023-10-09T04:55:46;281.60;2278.40
55026;DHT22;40925;45.666;18.994;2023-10-09T04:58:26;281.70;2278.40
55026;DHT22;40925;45.666;18.994;2023-10-09T05:00:55;256.90;2252.80
55026;DHT22;40925;45.666;18.994;2023-10-09T05:03:26;256.80;2252.80
55026;DHT22;40925;45.666;18.994;2023-10-09T05:06:12;256.80;2252.80
55026;DHT22;40925;45.666;18.994;2023-10-09T05:08:58;256.90;2252.80
55026;DHT22;40925;45.666;18.994;2023-10-09T05:11:35;256.90;2252.80
55026;DHT22;40925;45.666;18.994;2023-10-09T05:14:21;256.80;2252.80
55026;DHT22;40925;45.666;18.994;2023-10-09T05:17:04;256.80;2252.80
55026;DHT22;40925;45.666;18.994;2023-10-09T05:19:34;256.80;2252.80
55026;DHT22;40925;45.666;18.994;2023-10-09T05:22:19;256.70;2252.80
55026;DHT22;40925;45.666;18.994;2023-10-09T05:25:16;256.60;2252.80
55026;DHT22;40925;45.666;18.994;2023-10-09T05:28:02;256.90;2252.80
55026;DHT22;40925;45.666;18.994;2023-10-09T05:30:48;281.80;2278.40
55026;DHT22;40925;45.666;18.994;2023-10-09T05:33:22;282.10;2278.40
55026;DHT22;40925;45.666;18.994;2023-10-09T05:35:55;282.10;2278.40
55026;DHT22;40925;45.666;18.994;2023-10-09T05:38:39;281.80;2278.40
55026;DHT22;40925;45.666;18.994;2023-10-09T05:41:12;282.40;2278.40
55026;DHT22;40925;45.666;18.994;2023-10-09T05:43:56;308.00;2304.00
55026;DHT22;40925;45.666;18.994;2023-10-09T05:46:40;358.40;2329.60
55026;DHT22;40925;45.666;18.994;2023-10-09T05:49:26;384.20;2329.60
55026;DHT22;40925;45.666;18.994;2023-10-09T05:52:14;358.90;2329.60
55026;DHT22;40925;45.666;18.994;2023-10-09T05:55:19;359.20;2329.60
55026;DHT22;40925;45.666;18.994;2023-10-09T05:58:05;409.60;2304.00
55026;DHT22;40925;45.666;18.994;2023-10-09T06:00:50;410.30;2176.00
55026;DHT22;40925;45.666;18.994;2023-10-09T06:03:34;435.50;2048.00
55026;DHT22;40925;45.666;18.994;2023-10-09T06:06:35;384.80;2176.00
55026;DHT22;40925;45.666;18.994;2023-10-09T06:09:12;409.60;2227.20
55026;DHT22;40925;45.666;18.994;2023-10-09T06:11:48;410.20;2124.80
55026;DHT22;40925;45.666;18.994;2023-10-09T06:14:19;435.30;2022.40
55026;DHT22;40925;45.666;18.994;2023-10-09T06:16:52;410.40;2022.40
55026;DHT22;40925;45.666;18.994;2023-10-09T06:19:36;435.70;1868.80
55026;DHT22;40925;45.666;18.994;2023-10-09T06:22:09;435.70;1766.40
55026;DHT22;40925;45.666;18.994;2023-10-09T06:24:55;409.90;1817.60
55026;DHT22;40925;45.666;18.994;2023-10-09T06:27:23;384.90;1792.00
55026;DHT22;40925;45.666;18.994;2023-10-09T06:29:58;384.70;1715.20
55026;DHT22;40925;45.666;18.994;2023-10-09T06:32:46;384.20;1792.00
55026;DHT22;40925;45.666;18.994;2023-10-09T06:35:24;358.50;1817.60
55026;DHT22;40925;45.666;18.994;2023-10-09T06:37:57;333.50;1894.40
55026;DHT22;40925;45.666;18.994;2023-10-09T06:40:27;333.00;1920.00
55026;DHT22;40925;45.666;18.994;2023-10-09T06:43:11;358.70;1945.60
55026;DHT22;40925;45.666;18.994;2023-10-09T06:48:13;410.50;1740.80
55026;DHT22;40925;45.666;18.994;2023-10-09T06:50:58;435.40;1689.60
55026;DHT22;40925;45.666;18.994;2023-10-09T06:53:42;384.50;1792.00
55026;DHT22;40925;45.666;18.994;2023-10-09T06:56:23;384.00;1868.80
55026;DHT22;40925;45.666;18.994;2023-10-09T06:58:51;358.50;1843.20
55026;DHT22;40925;45.666;18.994;2023-10-09T07:01:21;333.40;1894.40
55026;DHT22;40925;45.666;18.994;2023-10-09T07:03:56;333.60;1868.80
55026;DHT22;40925;45.666;18.994;2023-10-09T07:06:36;333.40;1894.40
55026;DHT22;40925;45.666;18.994;2023-10-09T07:09:02;359.00;1792.00
55026;DHT22;40925;45.666;18.994;2023-10-09T07:11:52;358.50;1817.60
55026;DHT22;40925;45.666;18.994;2023-10-09T07:14:24;333.50;1843.20
55026;DHT22;40925;45.666;18.994;2023-10-09T07:17:03;333.30;1868.80
55026;DHT22;40925;45.666;18.994;2023-10-09T07:19:48;333.60;1843.20
55026;DHT22;40925;45.666;18.994;2023-10-09T07:22:14;358.40;1817.60
55026;DHT22;40925;45.666;18.994;2023-10-09T07:24:50;358.50;1843.20
55026;DHT22;40925;45.666;18.994;2023-10-09T07:27:30;359.20;1766.40
55026;DHT22;40925;45.666;18.994;2023-10-09T07:30:19;359.10;1766.40
55026;DHT22;40925;45.666;18.994;2023-10-09T07:35:44;384.80;1689.60
55026;DHT22;40925;45.666;18.994;2023-10-09T07:40:52;461.40;1536.00
55026;DHT22;40925;45.666;18.994;2023-10-09T07:43:34;486.70;1459.20
55026;DHT22;40925;45.666;18.994;2023-10-09T07:46:18;486.70;1459.20
55026;DHT22;40925;45.666;18.994;2023-10-09T07:49:17;487.00;1408.00
55026;DHT22;40925;45.666;18.994;2023-10-09T07:51:51;486.80;1408.00
55026;DHT22;40925;45.666;18.994;2023-10-09T07:54:18;486.40;1433.60
55026;DHT22;40925;45.666;18.994;2023-10-09T07:57:17;487.00;1510.40
55026;DHT22;40925;45.666;18.994;2023-10-09T07:59:43;461.10;1536.00
55026;DHT22;40925;45.666;18.994;2023-10-09T08:02:27;461.50;1561.60
55026;DHT22;40925;45.666;18.994;2023-10-09T08:05:00;460.80;1587.20
55026;DHT22;40925;45.666;18.994;2023-10-09T08:07:46;461.70;1561.60
55026;DHT22;40925;45.666;18.994;2023-10-09T08:10:29;461.70;1536.00
55026;DHT22;40925;45.666;18.994;2023-10-09T08:12:58;461.70;1536.00
55026;DHT22;40925;45.666;18.994;2023-10-09T08:15:25;486.40;1510.40
55026;DHT22;40925;45.666;18.994;2023-10-09T08:18:10;461.40;1536.00
55026;DHT22;40925;45.666;18.994;2023-10-09T08:20:40;461.60;1561.60
55026;DHT22;40925;45.666;18.994;2023-10-09T08:23:24;460.90;1587.20
55026;DHT22;40925;45.666;18.994;2023-10-09T08:26:05;461.20;1561.60
55026;DHT22;40925;45.666;18.994;2023-10-09T08:28:44;461.40;1612.80
55026;DHT22;40925;45.666;18.994;2023-10-09T08:31:15;486.40;1536.00
55026;DHT22;40925;45.666;18.994;2023-10-09T08:33:46;486.60;1536.00
55026;DHT22;40925;45.666;18.994;2023-10-09T08:36:23;461.70;1561.60
55026;DHT22;40925;45.666;18.994;2023-10-09T08:38:56;461.60;1561.60
55026;DHT22;40925;45.666;18.994;2023-10-09T08:41:42;486.50;1561.60
55026;DHT22;40925;45.666;18.994;2023-10-09T08:44:12;486.60;1561.60
55026;DHT22;40925;45.666;18.994;2023-10-09T08:46:40;487.00;1587.20
55026;DHT22;40925;45.666;18.994;2023-10-09T08:49:08;461.70;1561.60
55026;DHT22;40925;45.666;18.994;2023-10-09T08:51:37;461.70;1561.60
55026;DHT22;40925;45.666;18.994;2023-10-09T08:54:03;512.00;1510.40
55026;DHT22;40925;45.666;18.994;2023-10-09T08:56:30;487.00;1484.80
55026;DHT22;40925;45.666;18.994;2023-10-09T08:58:57;486.80;1587.20
55026;DHT22;40925;45.666;18.994;2023-10-09T09:01:23;487.20;1510.40
55026;DHT22;40925;45.666;18.994;2023-10-09T09:03:51;512.40;1459.20
55026;DHT22;40925;45.666;18.994;2023-10-09T09:06:20;512.00;1459.20
55026;DHT22;40925;45.666;18.994;2023-10-09T09:08:46;486.90;1536.00
55026;DHT22;40925;45.666;18.994;2023-10-09T09:11:16;461.70;1561.60
55026;DHT22;40925;45.666;18.994;2023-10-09T09:14:04;461.40;1612.80
55026;DHT22;40925;45.666;18.994;2023-10-09T09:16:41;461.30;1587.20
55026;DHT22;40925;45.666;18.994;2023-10-09T09:19:09;461.10;1612.80
55026;DHT22;40925;45.666;18.994;2023-10-09T09:21:52;460.80;1638.40
55026;DHT22;40925;45.666;18.994;2023-10-09T09:24:22;460.80;1638.40
55026;DHT22;40925;45.666;18.994;2023-10-09T09:26:48;461.00;1638.40
55026;DHT22;40925;45.666;18.994;2023-10-09T09:29:39;461.40;1638.40
55026;DHT22;40925;45.666;18.994;2023-10-09T09:32:08;461.70;1612.80
55026;DHT22;40925;45.666;18.994;2023-10-09T09:34:51;461.70;1587.20
55026;DHT22;40925;45.666;18.994;2023-10-09T09:37:27;461.60;1612.80
55026;DHT22;40925;45.666;18.994;2023-10-09T09:40:04;461.70;1612.80
55026;DHT22;40925;45.666;18.994;2023-10-09T09:43:00;486.50;1587.20
55026;DHT22;40925;45.666;18.994;2023-10-09T09:45:36;486.60;1587.20
55026;DHT22;40925;45.666;18.994;2023-10-09T09:48:06;461.70;1612.80
55026;DHT22;40925;45.666;18.994;2023-10-09T09:50:36;486.60;1638.40
55026;DHT22;40925;45.666;18.994;2023-10-09T09:53:10;486.60;1612.80
55026;DHT22;40925;45.666;18.994;2023-10-09T09:55:54;461.70;1638.40
55026;DHT22;40925;45.666;18.994;2023-10-09T09:58:27;486.80;1587.20
55026;DHT22;40925;45.666;18.994;2023-10-09T10:01:03;486.90;1587.20
55026;DHT22;40925;45.666;18.994;2023-10-09T10:03:44;486.60;1612.80
55026;DHT22;40925;45.666;18.994;2023-10-09T10:06:13;486.60;1612.80
55026;DHT22;40925;45.666;18.994;2023-10-09T10:08:41;486.90;1587.20
55026;DHT22;40925;45.666;18.994;2023-10-09T10:11:07;487.00;1587.20
55026;DHT22;40925;45.666;18.994;2023-10-09T10:16:10;487.00;1561.60
55026;DHT22;40925;45.666;18.994;2023-10-09T10:21:27;512.50;1484.80
55026;DHT22;40925;45.666;18.994;2023-10-09T10:24:04;512.50;1484.80
55026;DHT22;40925;45.666;18.994;2023-10-09T10:26:35;537.70;1484.80
55026;DHT22;40925;45.666;18.994;2023-10-09T10:29:17;537.80;1459.20
55026;DHT22;40925;45.666;18.994;2023-10-09T10:31:54;537.60;1484.80
55026;DHT22;40925;45.666;18.994;2023-10-09T10:34:22;537.80;1484.80
55026;DHT22;40925;45.666;18.994;2023-10-09T10:36:50;538.00;1484.80
55026;DHT22;40925;45.666;18.994;2023-10-09T10:39:26;537.90;1510.40
55026;DHT22;40925;45.666;18.994;2023-10-09T10:42:10;537.60;1536.00
55026;DHT22;40925;45.666;18.994;2023-10-09T10:45:00;537.80;1510.40
55026;DHT22;40925;45.666;18.994;2023-10-09T10:47:29;538.00;1510.40
55026;DHT22;40925;45.666;18.994;2023-10-09T10:50:01;538.00;1510.40
55026;DHT22;40925;45.666;18.994;2023-10-09T10:53:13;537.70;1536.00
55026;DHT22;40925;45.666;18.994;2023-10-09T10:56:13;537.60;1536.00
55026;DHT22;40925;45.666;18.994;2023-10-09T10:58:40;512.80;1510.40
55026;DHT22;40925;45.666;18.994;2023-10-09T11:01:39;512.70;1561.60
55026;DHT22;40925;45.666;18.994;2023-10-09T11:04:46;512.60;1561.60
55026;DHT22;40925;45.666;18.994;2023-10-09T11:07:21;512.80;1561.60
55026;DHT22;40925;45.666;18.994;2023-10-09T11:09:57;512.40;1561.60
55026;DHT22;40925;45.666;18.994;2023-10-09T11:12:28;512.50;1587.20
55026;DHT22;40925;45.666;18.994;2023-10-09T11:15:36;512.60;1587.20
55026;DHT22;40925;45.666;18.994;2023-10-09T11:18:23;512.60;1587.20
55026;DHT22;40925;45.666;18.994;2023-10-09T11:20:58;537.90;1612.80
55026;DHT22;40925;45.666;18.994;2023-10-09T11:23:28;538.00;1587.20
55026;DHT22;40925;45.666;18.994;2023-10-09T11:26:03;537.90;1587.20
55026;DHT22;40925;45.666;18.994;2023-10-09T11:34:27;563.30;1561.60
55026;DHT22;40925;45.666;18.994;2023-10-09T11:37:03;537.90;1561.60
55026;DHT22;40925;45.666;18.994;2023-10-09T11:39:32;538.50;1536.00
55026;DHT22;40925;45.666;18.994;2023-10-09T11:42:07;563.40;1536.00
55026;DHT22;40925;45.666;18.994;2023-10-09T11:44:41;563.70;1510.40
55026;DHT22;40925;45.666;18.994;2023-10-09T11:47:10;563.30;1561.60
55026;DHT22;40925;45.666;18.994;2023-10-09T11:49:58;563.60;1536.00
55026;DHT22;40925;45.666;18.994;2023-10-09T11:52:27;538.40;1536.00
55026;DHT22;40925;45.666;18.994;2023-10-09T11:55:11;538.50;1536.00
55026;DHT22;40925;45.666;18.994;2023-10-09T11:57:42;537.90;1587.20
55026;DHT22;40925;45.666;18.994;2023-10-09T12:00:08;537.90;1587.20
55026;DHT22;40925;45.666;18.994;2023-10-09T12:02:53;537.90;1587.20
55026;DHT22;40925;45.666;18.994;2023-10-09T12:05:19;538.40;1587.20
55026;DHT22;40925;45.666;18.994;2023-10-09T12:07:49;563.60;1561.60
55026;DHT22;40925;45.666;18.994;2023-10-09T12:10:38;588.90;1536.00
55026;DHT22;40925;45.666;18.994;2023-10-09T12:13:06;564.10;1510.40
55026;DHT22;40925;45.666;18.994;2023-10-09T12:15:33;563.90;1536.00
55026;DHT22;40925;45.666;18.994;2023-10-09T12:18:09;563.50;1561.60
55026;DHT22;40925;45.666;18.994;2023-10-09T12:20:42;564.00;1536.00
55026;DHT22;40925;45.666;18.994;2023-10-09T12:23:08;589.00;1536.00
55026;DHT22;40925;45.666;18.994;2023-10-09T12:25:34;588.90;1484.80
55026;DHT22;40925;45.666;18.994;2023-10-09T12:28:03;588.80;1536.00
55026;DHT22;40925;45.666;18.994;2023-10-09T12:30:29;563.80;1561.60
55026;DHT22;40925;45.666;18.994;2023-10-09T12:32:57;563.80;1561.60
55026;DHT22;40925;45.666;18.994;2023-10-09T12:35:26;563.80;1561.60
55026;DHT22;40925;45.666;18.994;2023-10-09T12:37:55;563.50;1587.20
55026;DHT22;40925;45.666;18.994;2023-10-09T12:40:22;563.60;1612.80
55026;DHT22;40925;45.666;18.994;2023-10-09T12:42:55;563.60;1612.80
55026;DHT22;40925;45.666;18.994;2023-10-09T12:45:27;588.90;1612.80
55026;DHT22;40925;45.666;18.994;2023-10-09T12:47:58;614.50;1561.60
55026;DHT22;40925;45.666;18.994;2023-10-09T12:50:37;614.70;1484.80
55026;DHT22;40925;45.666;18.994;2023-10-09T13:05:49;666.00;1408.00
55026;DHT22;40925;45.666;18.994;2023-10-09T13:08:23;665.80;1433.60
55026;DHT22;40925;45.666;18.994;2023-10-09T13:10:52;665.60;1408.00
55026;DHT22;40925;45.666;18.994;2023-10-09T13:13:28;640.60;1382.40
55026;DHT22;40925;45.666;18.994;2023-10-09T13:16:06;640.50;1408.00
55026;DHT22;40925;45.666;18.994;2023-10-09T13:18:32;640.50;1408.00
55026;DHT22;40925;45.666;18.994;2023-10-09T13:20:58;640.00;1433.60
55026;DHT22;40925;45.666;18.994;2023-10-09T13:23:29;615.30;1638.40
55026;DHT22;40925;45.666;18.994;2023-10-09T13:26:04;614.90;1459.20
55026;DHT22;40925;45.666;18.994;2023-10-09T13:28:43;614.80;1484.80
55026;DHT22;40925;45.666;18.994;2023-10-09T13:31:11;614.60;1484.80
55026;DHT22;40925;45.666;18.994;2023-10-09T13:33:40;589.70;1510.40
55026;DHT22;40925;45.666;18.994;2023-10-09T13:36:06;589.50;1510.40
55026;DHT22;40925;45.666;18.994;2023-10-09T13:38:42;589.60;1510.40
55026;DHT22;40925;45.666;18.994;2023-10-09T13:41:11;614.40;1536.00
55026;DHT22;40925;45.666;18.994;2023-10-09T13:43:44;614.70;1510.40
55026;DHT22;40925;45.666;18.994;2023-10-09T13:46:10;614.90;1484.80
55026;DHT22;40925;45.666;18.994;2023-10-09T13:48:41;615.30;1459.20
55026;DHT22;40925;45.666;18.994;2023-10-09T13:51:09;615.10;1484.80
55026;DHT22;40925;45.666;18.994;2023-10-09T13:53:40;615.10;1484.80
55026;DHT22;40925;45.666;18.994;2023-10-09T13:56:18;615.00;1484.80
55026;DHT22;40925;45.666;18.994;2023-10-09T13:58:51;614.80;1510.40
55026;DHT22;40925;45.666;18.994;2023-10-09T14:01:20;614.70;1510.40
55026;DHT22;40925;45.666;18.994;2023-10-09T14:03:58;614.50;1536.00
55026;DHT22;40925;45.666;18.994;2023-10-09T14:06:27;589.60;1587.20
55026;DHT22;40925;45.666;18.994;2023-10-09T14:09:03;589.60;1587.20
55026;DHT22;40925;45.666;18.994;2023-10-09T14:11:31;589.40;1587.20
55026;DHT22;40925;45.666;18.994;2023-10-09T14:13:57;589.40;1587.20
55026;DHT22;40925;45.666;18.994;2023-10-09T14:16:27;589.30;1587.20
55026;DHT22;40925;45.666;18.994;2023-10-09T14:18:54;589.00;1587.20
55026;DHT22;40925;45.666;18.994;2023-10-09T14:21:27;588.90;1587.20
55026;DHT22;40925;45.666;18.994;2023-10-09T14:24:04;564.10;1612.80
55026;DHT22;40925;45.666;18.994;2023-10-09T14:26:41;589.00;1612.80
55026;DHT22;40925;45.666;18.994;2023-10-09T14:29:07;564.00;1638.40
55026;DHT22;40925;45.666;18.994;2023-10-09T14:31:33;563.90;1638.40
55026;DHT22;40925;45.666;18.994;2023-10-09T14:34:04;563.60;1664.00
55026;DHT22;40925;45.666;18.994;2023-10-09T14:36:31;563.80;1664.00
55026;DHT22;40925;45.666;18.994;2023-10-09T14:39:01;563.60;1689.60
55026;DHT22;40925;45.666;18.994;2023-10-09T14:41:27;563.80;1689.60
55026;DHT22;40925;45.666;18.994;2023-10-09T14:43:54;563.90;1689.60
55026;DHT22;40925;45.666;18.994;2023-10-09T14:46:20;564.10;1689.60
55026;DHT22;40925;45.666;18.994;2023-10-09T14:48:55;564.00;1664.00
55026;DHT22;40925;45.666;18.994;2023-10-09T14:51:22;564.00;1664.00
55026;DHT22;40925;45.666;18.994;2023-10-09T14:53:57;564.00;1689.60
55026;DHT22;40925;45.666;18.994;2023-10-09T14:56:25;564.00;1664.00
55026;DHT22;40925;45.666;18.994;2023-10-09T14:58:58;564.00;1664.00
55026;DHT22;40925;45.666;18.994;2023-10-09T15:01:28;563.90;1689.60
55026;DHT22;40925;45.666;18.994;2023-10-09T15:03:58;563.80;1689.60
55026;DHT22;40925;45.666;18.994;2023-10-09T15:06:26;563.60;1689.60
55026;DHT22;40925;45.666;18.994;2023-10-09T15:08:54;563.70;1715.20
55026;DHT22;40925;45.666;18.994;2023-10-09T15:11:27;563.60;1689.60
55026;DHT22;40925;45.666;18.994;2023-10-09T15:13:55;563.60;1715.20
55026;DHT22;40925;45.666;18.994;2023-10-09T15:16:23;563.60;1689.60
55026;DHT22;40925;45.666;18.994;2023-10-09T15:18:53;563.50;1689.60
55026;DHT22;40925;45.666;18.994;2023-10-09T15:21:20;563.50;1740.80
55026;DHT22;40925;45.666;18.994;2023-10-09T15:23:55;563.40;1740.80
55026;DHT22;40925;45.666;18.994;2023-10-09T15:26:22;563.50;1740.80
55026;DHT22;40925;45.666;18.994;2023-10-09T15:28:53;563.40;1766.40
55026;DHT22;40925;45.666;18.994;2023-10-09T15:31:21;563.40;1740.80
55026;DHT22;40925;45.666;18.994;2023-10-09T15:33:47;563.30;1766.40
55026;DHT22;40925;45.666;18.994;2023-10-09T15:36:17;563.30;1766.40
55026;DHT22;40925;45.666;18.994;2023-10-09T15:38:48;563.40;1766.40
55026;DHT22;40925;45.666;18.994;2023-10-09T15:41:15;563.20;1792.00
55026;DHT22;40925;45.666;18.994;2023-10-09T15:43:42;563.30;1766.40
55026;DHT22;40925;45.666;18.994;2023-10-09T15:46:14;563.20;1792.00
55026;DHT22;40925;45.666;18.994;2023-10-09T15:48:41;538.50;1792.00
55026;DHT22;40925;45.666;18.994;2023-10-09T15:51:10;538.50;1766.40